sensor_id;sensor_type;location;lat;lon;timestamp;P1;durP1;ratioP1;P2;durP2;ratioP2
45356;SDS011;31092;51.924;21.448;2023-07-13T00:00:54;2.83;;;2.55;;
45356;SDS011;31092;51.924;21.448;2023-07-13T00:03:27;2.00;;;1.90;;
45356;SDS011;31092;51.924;21.448;2023-07-13T00:05:59;2.03;;;1.75;;
45356;SDS011;31092;51.924;21.448;2023-07-13T00:08:26;4.13;;;2.75;;
45356;SDS011;31092;51.924;21.448;2023-07-13T00:10:55;2.40;;;2.20;;
45356;SDS011;31092;51.924;21.448;2023-07-13T00:13:21;3.63;;;2.45;;
45356;SDS011;31092;51.924;21.448;2023-07-13T00:15:57;6.75;;;2.80;;
45356;SDS011;31092;51.924;21.448;2023-07-13T00:18:23;4.32;;;2.95;;
45356;SDS011;31092;51.924;21.448;2023-07-13T00:20:49;3.38;;;2.75;;
45356;SDS011;31092;51.924;21.448;2023-07-13T00:23:15;3.00;;;2.47;;
45356;SDS011;31092;51.924;21.448;2023-07-13T00:25:42;5.63;;;2.75;;
45356;SDS011;31092;51.924;21.448;2023-07-13T00:28:08;4.60;;;2.70;;
45356;SDS011;31092;51.924;21.448;2023-07-13T00:30:33;5.22;;;2.80;;
45356;SDS011;31092;51.924;21.448;2023-07-13T00:32:59;3.00;;;2.70;;
45356;SDS011;31092;51.924;21.448;2023-07-13T00:35:45;4.80;;;2.70;;
45356;SDS011;31092;51.924;21.448;2023-07-13T00:38:11;3.47;;;2.83;;
45356;SDS011;31092;51.924;21.448;2023-07-13T00:40:36;3.10;;;2.80;;
45356;SDS011;31092;51.924;21.448;2023-07-13T00:43:02;3.60;;;3.28;;
45356;SDS011;31092;51.924;21.448;2023-07-13T00:47:55;3.40;;;3.00;;
45356;SDS011;31092;51.924;21.448;2023-07-13T00:50:22;4.70;;;2.97;;
45356;SDS011;31092;51.924;21.448;2023-07-13T00:52:57;3.17;;;2.50;;
45356;SDS011;31092;51.924;21.448;2023-07-13T00:55:23;3.38;;;2.58;;
45356;SDS011;31092;51.924;21.448;2023-07-13T00:57:49;3.20;;;2.70;;
45356;SDS011;31092;51.924;21.448;2023-07-13T01:00:15;3.15;;;2.60;;
45356;SDS011;31092;51.924;21.448;2023-07-13T01:02:43;4.43;;;2.88;;
45356;SDS011;31092;51.924;21.448;2023-07-13T01:05:12;2.53;;;2.20;;
45356;SDS011;31092;51.924;21.448;2023-07-13T01:07:39;4.45;;;3.08;;
45356;SDS011;31092;51.924;21.448;2023-07-13T01:10:06;5.38;;;3.22;;
45356;SDS011;31092;51.924;21.448;2023-07-13T01:12:33;3.58;;;2.38;;
45356;SDS011;31092;51.924;21.448;2023-07-13T01:14:59;4.45;;;2.67;;
45356;SDS011;31092;51.924;21.448;2023-07-13T01:17:27;2.88;;;2.67;;
45356;SDS011;31092;51.924;21.448;2023-07-13T01:19:56;5.32;;;2.80;;
45356;SDS011;31092;51.924;21.448;2023-07-13T01:22:25;2.63;;;2.42;;
45356;SDS011;31092;51.924;21.448;2023-07-13T01:24:52;3.25;;;2.88;;
45356;SDS011;31092;51.924;21.448;2023-07-13T01:27:25;3.17;;;2.70;;
45356;SDS011;31092;51.924;21.448;2023-07-13T01:30:06;4.53;;;2.72;;
45356;SDS011;31092;51.924;21.448;2023-07-13T01:32:32;3.35;;;3.05;;
45356;SDS011;31092;51.924;21.448;2023-07-13T01:34:59;3.35;;;3.05;;
45356;SDS011;31092;51.924;21.448;2023-07-13T01:37:28;3.40;;;2.15;;
45356;SDS011;31092;51.924;21.448;2023-07-13T01:39:58;4.43;;;2.97;;
45356;SDS011;31092;51.924;21.448;2023-07-13T01:42:23;2.90;;;2.47;;
45356;SDS011;31092;51.924;21.448;2023-07-13T01:44:49;3.95;;;2.45;;
45356;SDS011;31092;51.924;21.448;2023-07-13T01:47:15;2.83;;;2.35;;
45356;SDS011;31092;51.924;21.448;2023-07-13T01:49:41;2.53;;;2.33;;
45356;SDS011;31092;51.924;21.448;2023-07-13T01:52:07;2.47;;;2.28;;
45356;SDS011;31092;51.924;21.448;2023-07-13T01:54:32;4.32;;;3.00;;
45356;SDS011;31092;51.924;21.448;2023-07-13T01:56:59;2.85;;;2.15;;
45356;SDS011;31092;51.924;21.448;2023-07-13T01:59:25;2.70;;;2.45;;
45356;SDS011;31092;51.924;21.448;2023-07-13T02:01:50;2.78;;;2.35;;
45356;SDS011;31092;51.924;21.448;2023-07-13T02:04:16;3.80;;;2.97;;
45356;SDS011;31092;51.924;21.448;2023-07-13T02:06:42;3.20;;;2.85;;
45356;SDS011;31092;51.924;21.448;2023-07-13T02:09:07;3.03;;;2.70;;
45356;SDS011;31092;51.924;21.448;2023-07-13T02:11:33;5.82;;;2.42;;
45356;SDS011;31092;51.924;21.448;2023-07-13T02:13:59;5.43;;;2.72;;
45356;SDS011;31092;51.924;21.448;2023-07-13T02:18:55;6.25;;;3.10;;
45356;SDS011;31092;51.924;21.448;2023-07-13T02:21:21;5.00;;;2.50;;
45356;SDS011;31092;51.924;21.448;2023-07-13T02:23:48;2.92;;;2.65;;
45356;SDS011;31092;51.924;21.448;2023-07-13T02:26:14;2.97;;;2.70;;
45356;SDS011;31092;51.924;21.448;2023-07-13T02:28:40;3.70;;;2.67;;
45356;SDS011;31092;51.924;21.448;2023-07-13T02:31:09;3.45;;;2.97;;
45356;SDS011;31092;51.924;21.448;2023-07-13T02:33:36;3.63;;;2.72;;
45356;SDS011;31092;51.924;21.448;2023-07-13T02:36:07;3.58;;;3.28;;
45356;SDS011;31092;51.924;21.448;2023-07-13T02:38:36;3.60;;;3.03;;
45356;SDS011;31092;51.924;21.448;2023-07-13T02:41:05;3.55;;;3.25;;
45356;SDS011;31092;51.924;21.448;2023-07-13T02:43:33;3.47;;;3.13;;
45356;SDS011;31092;51.924;21.448;2023-07-13T02:45:59;3.45;;;3.10;;
45356;SDS011;31092;51.924;21.448;2023-07-13T02:48:34;3.47;;;3.15;;
45356;SDS011;31092;51.924;21.448;2023-07-13T02:51:01;3.55;;;2.97;;
45356;SDS011;31092;51.924;21.448;2023-07-13T02:53:27;3.72;;;3.38;;
45356;SDS011;31092;51.924;21.448;2023-07-13T02:55:53;3.90;;;2.90;;
45356;SDS011;31092;51.924;21.448;2023-07-13T02:58:19;7.13;;;2.78;;
45356;SDS011;31092;51.924;21.448;2023-07-13T03:00:46;7.32;;;3.80;;
45356;SDS011;31092;51.924;21.448;2023-07-13T03:03:13;3.65;;;3.35;;
45356;SDS011;31092;51.924;21.448;2023-07-13T03:05:40;4.20;;;3.15;;
45356;SDS011;31092;51.924;21.448;2023-07-13T03:08:07;3.38;;;2.38;;
45356;SDS011;31092;51.924;21.448;2023-07-13T03:10:34;3.67;;;2.55;;
45356;SDS011;31092;51.924;21.448;2023-07-13T03:13:00;3.55;;;2.88;;
45356;SDS011;31092;51.924;21.448;2023-07-13T03:18:06;5.18;;;2.88;;
45356;SDS011;31092;51.924;21.448;2023-07-13T03:20:32;4.65;;;2.83;;
45356;SDS011;31092;51.924;21.448;2023-07-13T03:22:59;4.47;;;2.90;;
45356;SDS011;31092;51.924;21.448;2023-07-13T03:25:27;3.92;;;3.38;;
45356;SDS011;31092;51.924;21.448;2023-07-13T03:27:53;11.80;;;3.22;;
45356;SDS011;31092;51.924;21.448;2023-07-13T03:30:18;4.30;;;3.40;;
45356;SDS011;31092;51.924;21.448;2023-07-13T03:32:44;3.70;;;3.38;;
45356;SDS011;31092;51.924;21.448;2023-07-13T03:35:10;5.10;;;3.30;;
45356;SDS011;31092;51.924;21.448;2023-07-13T03:37:38;5.72;;;3.08;;
45356;SDS011;31092;51.924;21.448;2023-07-13T03:40:07;14.52;;;3.08;;
45356;SDS011;31092;51.924;21.448;2023-07-13T03:42:34;5.88;;;3.08;;
45356;SDS011;31092;51.924;21.448;2023-07-13T03:45:00;3.80;;;2.47;;
45356;SDS011;31092;51.924;21.448;2023-07-13T03:47:26;7.10;;;2.97;;
45356;SDS011;31092;51.924;21.448;2023-07-13T03:49:52;5.78;;;2.45;;
45356;SDS011;31092;51.924;21.448;2023-07-13T03:52:18;3.75;;;3.35;;
45356;SDS011;31092;51.924;21.448;2023-07-13T03:54:44;2.92;;;2.72;;
45356;SDS011;31092;51.924;21.448;2023-07-13T03:57:12;4.00;;;3.45;;
45356;SDS011;31092;51.924;21.448;2023-07-13T03:59:37;7.88;;;3.20;;
45356;SDS011;31092;51.924;21.448;2023-07-13T04:02:03;6.72;;;2.72;;
45356;SDS011;31092;51.924;21.448;2023-07-13T04:04:29;4.28;;;2.85;;
45356;SDS011;31092;51.924;21.448;2023-07-13T04:06:56;4.63;;;2.40;;
45356;SDS011;31092;51.924;21.448;2023-07-13T04:09:23;3.22;;;2.58;;
45356;SDS011;31092;51.924;21.448;2023-07-13T04:11:50;4.93;;;2.33;;
45356;SDS011;31092;51.924;21.448;2023-07-13T04:14:15;6.38;;;3.40;;
45356;SDS011;31092;51.924;21.448;2023-07-13T04:16:47;3.60;;;2.00;;
45356;SDS011;31092;51.924;21.448;2023-07-13T04:19:13;6.05;;;3.17;;
45356;SDS011;31092;51.924;21.448;2023-07-13T04:21:38;6.68;;;2.72;;
45356;SDS011;31092;51.924;21.448;2023-07-13T04:24:04;6.57;;;3.55;;
45356;SDS011;31092;51.924;21.448;2023-07-13T04:26:30;4.57;;;3.60;;
45356;SDS011;31092;51.924;21.448;2023-07-13T04:29:05;4.35;;;3.30;;
45356;SDS011;31092;51.924;21.448;2023-07-13T04:31:32;3.97;;;3.10;;
45356;SDS011;31092;51.924;21.448;2023-07-13T04:34:05;6.38;;;5.03;;
45356;SDS011;31092;51.924;21.448;2023-07-13T04:36:31;9.80;;;5.63;;
45356;SDS011;31092;51.924;21.448;2023-07-13T04:38:58;8.18;;;6.50;;
45356;SDS011;31092;51.924;21.448;2023-07-13T04:41:32;8.77;;;4.95;;
45356;SDS011;31092;51.924;21.448;2023-07-13T04:43:57;5.10;;;4.57;;
45356;SDS011;31092;51.924;21.448;2023-07-13T04:46:26;14.85;;;4.90;;
45356;SDS011;31092;51.924;21.448;2023-07-13T04:48:52;8.30;;;4.50;;
45356;SDS011;31092;51.924;21.448;2023-07-13T04:51:29;12.93;;;4.93;;
45356;SDS011;31092;51.924;21.448;2023-07-13T04:53:55;9.48;;;4.00;;
45356;SDS011;31092;51.924;21.448;2023-07-13T04:56:21;9.82;;;4.70;;
45356;SDS011;31092;51.924;21.448;2023-07-13T04:58:46;7.95;;;4.65;;
45356;SDS011;31092;51.924;21.448;2023-07-13T05:01:12;8.05;;;4.57;;
45356;SDS011;31092;51.924;21.448;2023-07-13T05:03:39;5.30;;;4.10;;
45356;SDS011;31092;51.924;21.448;2023-07-13T05:06:05;5.35;;;3.95;;
45356;SDS011;31092;51.924;21.448;2023-07-13T05:08:34;6.93;;;5.53;;
45356;SDS011;31092;51.924;21.448;2023-07-13T05:11:00;8.27;;;6.18;;
45356;SDS011;31092;51.924;21.448;2023-07-13T05:13:27;7.13;;;5.28;;
45356;SDS011;31092;51.924;21.448;2023-07-13T05:15:59;8.70;;;5.53;;
45356;SDS011;31092;51.924;21.448;2023-07-13T05:18:37;6.43;;;4.88;;
45356;SDS011;31092;51.924;21.448;2023-07-13T05:21:07;12.30;;;5.78;;
45356;SDS011;31092;51.924;21.448;2023-07-13T05:23:36;6.70;;;4.50;;
45356;SDS011;31092;51.924;21.448;2023-07-13T05:26:03;6.03;;;3.38;;
45356;SDS011;31092;51.924;21.448;2023-07-13T05:28:30;6.10;;;4.03;;
45356;SDS011;31092;51.924;21.448;2023-07-13T05:30:56;6.13;;;3.78;;
45356;SDS011;31092;51.924;21.448;2023-07-13T05:33:31;7.13;;;5.18;;
45356;SDS011;31092;51.924;21.448;2023-07-13T05:35:56;9.90;;;6.60;;
45356;SDS011;31092;51.924;21.448;2023-07-13T05:38:22;6.07;;;5.45;;
45356;SDS011;31092;51.924;21.448;2023-07-13T05:40:59;14.48;;;5.38;;
45356;SDS011;31092;51.924;21.448;2023-07-13T05:43:25;9.45;;;5.18;;
45356;SDS011;31092;51.924;21.448;2023-07-13T05:45:52;9.65;;;4.75;;
45356;SDS011;31092;51.924;21.448;2023-07-13T05:48:41;9.90;;;5.30;;
45356;SDS011;31092;51.924;21.448;2023-07-13T05:54:29;14.43;;;4.90;;
45356;SDS011;31092;51.924;21.448;2023-07-13T05:56:55;8.40;;;6.13;;
45356;SDS011;31092;51.924;21.448;2023-07-13T05:59:20;17.00;;;5.70;;
45356;SDS011;31092;51.924;21.448;2023-07-13T06:01:46;5.28;;;4.78;;
45356;SDS011;31092;51.924;21.448;2023-07-13T06:04:11;56.45;;;7.13;;
45356;SDS011;31092;51.924;21.448;2023-07-13T06:06:42;9.32;;;5.78;;
45356;SDS011;31092;51.924;21.448;2023-07-13T06:09:08;8.20;;;5.55;;
45356;SDS011;31092;51.924;21.448;2023-07-13T06:11:34;11.15;;;6.22;;
45356;SDS011;31092;51.924;21.448;2023-07-13T06:14:00;14.38;;;5.85;;
45356;SDS011;31092;51.924;21.448;2023-07-13T06:16:26;7.00;;;5.57;;
45356;SDS011;31092;51.924;21.448;2023-07-13T06:19:01;6.82;;;6.05;;
45356;SDS011;31092;51.924;21.448;2023-07-13T06:21:26;7.50;;;5.35;;
45356;SDS011;31092;51.924;21.448;2023-07-13T06:23:52;11.63;;;5.85;;
45356;SDS011;31092;51.924;21.448;2023-07-13T06:26:18;6.13;;;4.97;;
45356;SDS011;31092;51.924;21.448;2023-07-13T06:28:45;7.20;;;5.82;;
45356;SDS011;31092;51.924;21.448;2023-07-13T06:31:11;7.30;;;5.60;;
45356;SDS011;31092;51.924;21.448;2023-07-13T06:33:38;6.68;;;5.68;;
45356;SDS011;31092;51.924;21.448;2023-07-13T06:36:04;8.88;;;5.40;;
45356;SDS011;31092;51.924;21.448;2023-07-13T06:38:31;9.00;;;5.55;;
45356;SDS011;31092;51.924;21.448;2023-07-13T06:40:57;6.55;;;5.63;;
45356;SDS011;31092;51.924;21.448;2023-07-13T06:43:23;6.20;;;4.35;;
45356;SDS011;31092;51.924;21.448;2023-07-13T06:45:50;9.63;;;5.60;;
45356;SDS011;31092;51.924;21.448;2023-07-13T06:48:19;6.85;;;4.70;;
45356;SDS011;31092;51.924;21.448;2023-07-13T06:50:45;5.28;;;4.15;;
45356;SDS011;31092;51.924;21.448;2023-07-13T06:53:11;6.22;;;4.55;;
45356;SDS011;31092;51.924;21.448;2023-07-13T06:55:38;8.13;;;4.43;;
45356;SDS011;31092;51.924;21.448;2023-07-13T06:58:04;8.52;;;4.78;;
45356;SDS011;31092;51.924;21.448;2023-07-13T07:00:30;6.32;;;4.30;;
45356;SDS011;31092;51.924;21.448;2023-07-13T07:02:56;4.47;;;3.50;;
45356;SDS011;31092;51.924;21.448;2023-07-13T07:05:22;10.70;;;4.57;;
45356;SDS011;31092;51.924;21.448;2023-07-13T07:07:48;8.88;;;4.10;;
45356;SDS011;31092;51.924;21.448;2023-07-13T07:10:15;7.35;;;3.35;;
45356;SDS011;31092;51.924;21.448;2023-07-13T07:12:40;6.10;;;3.45;;
45356;SDS011;31092;51.924;21.448;2023-07-13T07:15:06;4.00;;;3.33;;
45356;SDS011;31092;51.924;21.448;2023-07-13T07:17:32;3.55;;;2.63;;
45356;SDS011;31092;51.924;21.448;2023-07-13T07:19:57;6.22;;;3.40;;
45356;SDS011;31092;51.924;21.448;2023-07-13T07:22:23;3.00;;;2.72;;
45356;SDS011;31092;51.924;21.448;2023-07-13T07:24:52;2.30;;;2.10;;
45356;SDS011;31092;51.924;21.448;2023-07-13T07:27:18;4.05;;;2.80;;
45356;SDS011;31092;51.924;21.448;2023-07-13T07:29:43;2.63;;;2.42;;
45356;SDS011;31092;51.924;21.448;2023-07-13T07:32:09;2.42;;;2.15;;
45356;SDS011;31092;51.924;21.448;2023-07-13T07:34:34;5.07;;;2.22;;
45356;SDS011;31092;51.924;21.448;2023-07-13T07:37:00;2.05;;;1.90;;
45356;SDS011;31092;51.924;21.448;2023-07-13T07:39:26;2.50;;;2.30;;
45356;SDS011;31092;51.924;21.448;2023-07-13T07:41:52;3.47;;;2.63;;
45356;SDS011;31092;51.924;21.448;2023-07-13T07:44:18;2.45;;;2.20;;
45356;SDS011;31092;51.924;21.448;2023-07-13T07:46:43;3.55;;;2.40;;
45356;SDS011;31092;51.924;21.448;2023-07-13T07:49:09;2.97;;;2.50;;
45356;SDS011;31092;51.924;21.448;2023-07-13T07:51:35;3.10;;;2.67;;
45356;SDS011;31092;51.924;21.448;2023-07-13T07:54:01;4.22;;;3.45;;
45356;SDS011;31092;51.924;21.448;2023-07-13T07:56:26;4.43;;;3.50;;
45356;SDS011;31092;51.924;21.448;2023-07-13T07:58:52;4.07;;;3.17;;
45356;SDS011;31092;51.924;21.448;2023-07-13T08:01:17;4.00;;;3.60;;
45356;SDS011;31092;51.924;21.448;2023-07-13T08:03:43;9.57;;;3.80;;
45356;SDS011;31092;51.924;21.448;2023-07-13T08:06:08;14.18;;;3.33;;
45356;SDS011;31092;51.924;21.448;2023-07-13T08:08:34;4.03;;;3.63;;
45356;SDS011;31092;51.924;21.448;2023-07-13T08:11:02;4.93;;;4.40;;
45356;SDS011;31092;51.924;21.448;2023-07-13T08:13:30;7.15;;;4.82;;
45356;SDS011;31092;51.924;21.448;2023-07-13T08:15:55;5.63;;;4.40;;
45356;SDS011;31092;51.924;21.448;2023-07-13T08:18:21;6.75;;;4.25;;
45356;SDS011;31092;51.924;21.448;2023-07-13T08:20:46;4.90;;;4.50;;
45356;SDS011;31092;51.924;21.448;2023-07-13T08:23:12;5.57;;;3.72;;
45356;SDS011;31092;51.924;21.448;2023-07-13T08:25:37;6.93;;;4.43;;
45356;SDS011;31092;51.924;21.448;2023-07-13T08:28:03;5.53;;;4.55;;
45356;SDS011;31092;51.924;21.448;2023-07-13T08:30:29;8.15;;;4.47;;
45356;SDS011;31092;51.924;21.448;2023-07-13T08:32:55;5.80;;;5.03;;
45356;SDS011;31092;51.924;21.448;2023-07-13T08:35:21;6.13;;;5.53;;
45356;SDS011;31092;51.924;21.448;2023-07-13T08:37:46;6.82;;;5.72;;
45356;SDS011;31092;51.924;21.448;2023-07-13T08:40:12;7.30;;;5.28;;
45356;SDS011;31092;51.924;21.448;2023-07-13T08:42:53;5.80;;;5.30;;
45356;SDS011;31092;51.924;21.448;2023-07-13T08:45:22;9.75;;;5.25;;
45356;SDS011;31092;51.924;21.448;2023-07-13T08:47:56;5.85;;;5.03;;
45356;SDS011;31092;51.924;21.448;2023-07-13T08:50:30;5.82;;;4.35;;
45356;SDS011;31092;51.924;21.448;2023-07-13T08:52:59;5.68;;;4.03;;
45356;SDS011;31092;51.924;21.448;2023-07-13T08:55:28;5.00;;;4.50;;
45356;SDS011;31092;51.924;21.448;2023-07-13T08:58:14;5.68;;;4.85;;
45356;SDS011;31092;51.924;21.448;2023-07-13T09:00:51;5.10;;;4.50;;
45356;SDS011;31092;51.924;21.448;2023-07-13T09:03:25;4.95;;;3.95;;
45356;SDS011;31092;51.924;21.448;2023-07-13T09:05:59;4.20;;;3.85;;
45356;SDS011;31092;51.924;21.448;2023-07-13T09:16:50;5.13;;;3.95;;
45356;SDS011;31092;51.924;21.448;2023-07-13T09:19:20;3.75;;;3.35;;
45356;SDS011;31092;51.924;21.448;2023-07-13T09:21:49;3.05;;;2.70;;
45356;SDS011;31092;51.924;21.448;2023-07-13T09:26:55;5.53;;;3.30;;
45356;SDS011;31092;51.924;21.448;2023-07-13T09:29:29;3.45;;;3.15;;
45356;SDS011;31092;51.924;21.448;2023-07-13T09:32:01;10.00;;;4.13;;
45356;SDS011;31092;51.924;21.448;2023-07-13T09:34:28;12.75;;;4.13;;
45356;SDS011;31092;51.924;21.448;2023-07-13T09:36:55;3.05;;;2.75;;
45356;SDS011;31092;51.924;21.448;2023-07-13T09:46:56;3.03;;;2.58;;
45356;SDS011;31092;51.924;21.448;2023-07-13T09:49:29;2.90;;;2.53;;
45356;SDS011;31092;51.924;21.448;2023-07-13T09:52:00;2.92;;;2.33;;
45356;SDS011;31092;51.924;21.448;2023-07-13T09:54:35;2.70;;;2.50;;
45356;SDS011;31092;51.924;21.448;2023-07-13T09:57:02;3.45;;;2.70;;
45356;SDS011;31092;51.924;21.448;2023-07-13T09:59:39;2.50;;;2.30;;
45356;SDS011;31092;51.924;21.448;2023-07-13T10:04:53;3.45;;;2.70;;
45356;SDS011;31092;51.924;21.448;2023-07-13T10:07:23;3.17;;;2.85;;
45356;SDS011;31092;51.924;21.448;2023-07-13T10:09:51;5.32;;;3.17;;
45356;SDS011;31092;51.924;21.448;2023-07-13T10:12:21;3.45;;;2.72;;
45356;SDS011;31092;51.924;21.448;2023-07-13T10:14:51;4.55;;;2.83;;
45356;SDS011;31092;51.924;21.448;2023-07-13T10:17:20;2.75;;;2.55;;
45356;SDS011;31092;51.924;21.448;2023-07-13T10:19:55;2.97;;;2.28;;
45356;SDS011;31092;51.924;21.448;2023-07-13T10:22:30;7.82;;;2.95;;
45356;SDS011;31092;51.924;21.448;2023-07-13T10:25:07;3.38;;;2.83;;
45356;SDS011;31092;51.924;21.448;2023-07-13T10:27:45;4.75;;;2.80;;
45356;SDS011;31092;51.924;21.448;2023-07-13T10:30:17;4.55;;;2.50;;
45356;SDS011;31092;51.924;21.448;2023-07-13T10:32:47;2.60;;;2.40;;
45356;SDS011;31092;51.924;21.448;2023-07-13T10:35:15;2.90;;;2.35;;
45356;SDS011;31092;51.924;21.448;2023-07-13T10:40:18;4.25;;;2.90;;
45356;SDS011;31092;51.924;21.448;2023-07-13T10:42:56;2.45;;;2.25;;
45356;SDS011;31092;51.924;21.448;2023-07-13T10:45:25;3.45;;;2.00;;
45356;SDS011;31092;51.924;21.448;2023-07-13T10:47:54;3.47;;;2.25;;
45356;SDS011;31092;51.924;21.448;2023-07-13T10:50:28;3.88;;;3.10;;
45356;SDS011;31092;51.924;21.448;2023-07-13T10:53:00;2.78;;;2.10;;
45356;SDS011;31092;51.924;21.448;2023-07-13T10:58:02;3.45;;;2.42;;
45356;SDS011;31092;51.924;21.448;2023-07-13T11:00:35;3.00;;;2.17;;
45356;SDS011;31092;51.924;21.448;2023-07-13T11:03:13;5.32;;;2.42;;
45356;SDS011;31092;51.924;21.448;2023-07-13T11:05:41;2.97;;;2.67;;
45356;SDS011;31092;51.924;21.448;2023-07-13T11:10:56;3.28;;;2.92;;
45356;SDS011;31092;51.924;21.448;2023-07-13T11:13:38;2.85;;;2.60;;
45356;SDS011;31092;51.924;21.448;2023-07-13T11:16:13;2.58;;;1.90;;
45356;SDS011;31092;51.924;21.448;2023-07-13T11:21:28;2.28;;;2.08;;
45356;SDS011;31092;51.924;21.448;2023-07-13T11:26:43;4.88;;;3.20;;
45356;SDS011;31092;51.924;21.448;2023-07-13T11:31:40;3.15;;;2.60;;
45356;SDS011;31092;51.924;21.448;2023-07-13T11:34:12;3.00;;;2.55;;
45356;SDS011;31092;51.924;21.448;2023-07-13T11:36:39;2.60;;;2.40;;
45356;SDS011;31092;51.924;21.448;2023-07-13T11:39:12;2.92;;;2.55;;
45356;SDS011;31092;51.924;21.448;2023-07-13T11:41:56;3.10;;;2.72;;
45356;SDS011;31092;51.924;21.448;2023-07-13T11:44:25;4.43;;;2.67;;
45356;SDS011;31092;51.924;21.448;2023-07-13T11:46:55;4.15;;;3.72;;
45356;SDS011;31092;51.924;21.448;2023-07-13T11:49:26;6.18;;;3.58;;
45356;SDS011;31092;51.924;21.448;2023-07-13T11:51:54;13.18;;;3.58;;
45356;SDS011;31092;51.924;21.448;2023-07-13T11:54:24;5.35;;;3.15;;
45356;SDS011;31092;51.924;21.448;2023-07-13T11:56:52;3.65;;;3.33;;
45356;SDS011;31092;51.924;21.448;2023-07-13T11:59:18;3.90;;;3.50;;
45356;SDS011;31092;51.924;21.448;2023-07-13T12:01:46;3.08;;;2.50;;
45356;SDS011;31092;51.924;21.448;2023-07-13T12:04:25;7.25;;;3.65;;
45356;SDS011;31092;51.924;21.448;2023-07-13T12:06:58;3.28;;;3.00;;
45356;SDS011;31092;51.924;21.448;2023-07-13T12:09:48;3.72;;;3.33;;
45356;SDS011;31092;51.924;21.448;2023-07-13T12:12:21;5.13;;;3.13;;
45356;SDS011;31092;51.924;21.448;2023-07-13T12:14:50;4.00;;;2.80;;
45356;SDS011;31092;51.924;21.448;2023-07-13T12:17:24;7.53;;;3.10;;
45356;SDS011;31092;51.924;21.448;2023-07-13T12:19:51;6.45;;;3.67;;
45356;SDS011;31092;51.924;21.448;2023-07-13T12:22:18;7.07;;;3.13;;
45356;SDS011;31092;51.924;21.448;2023-07-13T12:24:45;3.92;;;2.67;;
45356;SDS011;31092;51.924;21.448;2023-07-13T12:27:20;3.53;;;2.95;;
45356;SDS011;31092;51.924;21.448;2023-07-13T12:29:51;6.40;;;3.60;;
45356;SDS011;31092;51.924;21.448;2023-07-13T12:32:24;3.05;;;2.75;;
45356;SDS011;31092;51.924;21.448;2023-07-13T12:37:42;4.32;;;3.08;;
45356;SDS011;31092;51.924;21.448;2023-07-13T12:40:15;4.10;;;2.40;;
45356;SDS011;31092;51.924;21.448;2023-07-13T12:42:45;4.03;;;2.55;;
45356;SDS011;31092;51.924;21.448;2023-07-13T12:47:54;3.17;;;2.30;;
45356;SDS011;31092;51.924;21.448;2023-07-13T12:50:27;7.72;;;3.42;;
45356;SDS011;31092;51.924;21.448;2023-07-13T12:53:05;2.92;;;2.20;;
45356;SDS011;31092;51.924;21.448;2023-07-13T12:55:44;6.28;;;2.45;;
45356;SDS011;31092;51.924;21.448;2023-07-13T12:58:16;4.70;;;2.75;;
45356;SDS011;31092;51.924;21.448;2023-07-13T13:00:57;8.55;;;2.65;;
45356;SDS011;31092;51.924;21.448;2023-07-13T13:06:05;2.67;;;2.20;;
45356;SDS011;31092;51.924;21.448;2023-07-13T13:08:52;8.23;;;1.95;;
45356;SDS011;31092;51.924;21.448;2023-07-13T13:11:20;4.43;;;2.08;;
45356;SDS011;31092;51.924;21.448;2023-07-13T13:13:48;2.83;;;2.35;;
45356;SDS011;31092;51.924;21.448;2023-07-13T13:16:17;2.53;;;1.70;;
45356;SDS011;31092;51.924;21.448;2023-07-13T13:18:50;3.92;;;2.42;;
45356;SDS011;31092;51.924;21.448;2023-07-13T13:21:17;2.92;;;2.50;;
45356;SDS011;31092;51.924;21.448;2023-07-13T13:23:44;4.82;;;2.10;;
45356;SDS011;31092;51.924;21.448;2023-07-13T13:26:11;4.10;;;1.70;;
45356;SDS011;31092;51.924;21.448;2023-07-13T13:28:37;1.75;;;1.42;;
45356;SDS011;31092;51.924;21.448;2023-07-13T13:31:03;4.03;;;1.92;;
45356;SDS011;31092;51.924;21.448;2023-07-13T13:33:29;3.13;;;1.88;;
45356;SDS011;31092;51.924;21.448;2023-07-13T13:35:55;4.32;;;1.83;;
45356;SDS011;31092;51.924;21.448;2023-07-13T13:38:24;2.20;;;1.95;;
45356;SDS011;31092;51.924;21.448;2023-07-13T13:40:51;4.53;;;2.25;;
45356;SDS011;31092;51.924;21.448;2023-07-13T13:43:22;3.28;;;2.22;;
45356;SDS011;31092;51.924;21.448;2023-07-13T13:45:52;4.55;;;2.08;;
45356;SDS011;31092;51.924;21.448;2023-07-13T13:48:29;3.70;;;2.50;;
45356;SDS011;31092;51.924;21.448;2023-07-13T13:50:57;3.50;;;2.30;;
45356;SDS011;31092;51.924;21.448;2023-07-13T13:53:23;3.65;;;2.50;;
45356;SDS011;31092;51.924;21.448;2023-07-13T13:55:49;4.45;;;2.30;;
45356;SDS011;31092;51.924;21.448;2023-07-13T13:58:15;4.13;;;2.50;;
45356;SDS011;31092;51.924;21.448;2023-07-13T14:00:41;1.85;;;1.75;;
45356;SDS011;31092;51.924;21.448;2023-07-13T14:03:20;2.17;;;1.88;;
45356;SDS011;31092;51.924;21.448;2023-07-13T14:05:47;5.53;;;2.85;;
45356;SDS011;31092;51.924;21.448;2023-07-13T14:08:14;2.40;;;2.20;;
45356;SDS011;31092;51.924;21.448;2023-07-13T14:10:42;23.23;;;3.08;;
45356;SDS011;31092;51.924;21.448;2023-07-13T14:13:14;3.55;;;2.65;;
45356;SDS011;31092;51.924;21.448;2023-07-13T14:15:52;2.90;;;2.38;;
45356;SDS011;31092;51.924;21.448;2023-07-13T14:18:18;3.65;;;2.20;;
45356;SDS011;31092;51.924;21.448;2023-07-13T14:20:45;2.70;;;2.10;;
45356;SDS011;31092;51.924;21.448;2023-07-13T14:23:12;2.30;;;2.10;;
45356;SDS011;31092;51.924;21.448;2023-07-13T14:25:41;4.07;;;2.50;;
45356;SDS011;31092;51.924;21.448;2023-07-13T14:28:21;1.92;;;1.83;;
45356;SDS011;31092;51.924;21.448;2023-07-13T14:30:49;2.50;;;2.10;;
45356;SDS011;31092;51.924;21.448;2023-07-13T14:33:15;2.05;;;1.88;;
45356;SDS011;31092;51.924;21.448;2023-07-13T14:35:41;4.05;;;2.88;;
45356;SDS011;31092;51.924;21.448;2023-07-13T14:38:17;8.00;;;2.80;;
45356;SDS011;31092;51.924;21.448;2023-07-13T14:40:44;4.50;;;3.08;;
45356;SDS011;31092;51.924;21.448;2023-07-13T14:43:11;8.13;;;3.35;;
45356;SDS011;31092;51.924;21.448;2023-07-13T14:45:41;4.80;;;2.80;;
45356;SDS011;31092;51.924;21.448;2023-07-13T14:48:20;2.90;;;2.70;;
45356;SDS011;31092;51.924;21.448;2023-07-13T14:50:58;3.58;;;2.63;;
45356;SDS011;31092;51.924;21.448;2023-07-13T14:53:25;4.63;;;1.80;;
45356;SDS011;31092;51.924;21.448;2023-07-13T14:55:54;3.17;;;2.25;;
45356;SDS011;31092;51.924;21.448;2023-07-13T14:58:20;4.78;;;2.17;;
45356;SDS011;31092;51.924;21.448;2023-07-13T15:00:45;2.50;;;2.28;;
45356;SDS011;31092;51.924;21.448;2023-07-13T15:03:18;2.88;;;2.58;;
45356;SDS011;31092;51.924;21.448;2023-07-13T15:05:46;5.63;;;2.38;;
45356;SDS011;31092;51.924;21.448;2023-07-13T15:08:13;2.45;;;2.17;;
45356;SDS011;31092;51.924;21.448;2023-07-13T15:10:39;2.17;;;1.88;;
45356;SDS011;31092;51.924;21.448;2023-07-13T15:16:26;3.80;;;3.45;;
45356;SDS011;31092;51.924;21.448;2023-07-13T15:18:52;4.22;;;3.65;;
45356;SDS011;31092;51.924;21.448;2023-07-13T15:21:20;5.20;;;3.47;;
45356;SDS011;31092;51.924;21.448;2023-07-13T15:23:47;8.90;;;3.43;;
45356;SDS011;31092;51.924;21.448;2023-07-13T15:26:14;3.80;;;3.35;;
45356;SDS011;31092;51.924;21.448;2023-07-13T15:28:41;3.70;;;3.40;;
45356;SDS011;31092;51.924;21.448;2023-07-13T15:31:22;5.55;;;3.13;;
45356;SDS011;31092;51.924;21.448;2023-07-13T15:33:52;3.42;;;3.13;;
45356;SDS011;31092;51.924;21.448;2023-07-13T15:38:50;3.00;;;2.70;;
45356;SDS011;31092;51.924;21.448;2023-07-13T15:43:48;3.55;;;2.35;;
45356;SDS011;31092;51.924;21.448;2023-07-13T15:46:16;2.90;;;1.83;;